Time;durP1;ratioP1;P1;durP2;ratioP2;P2;SDS_P1;SDS_P2;PMS_P1;PMS_P2;Temp;Humidity;BMP_temperature;BMP_pressure;BME280_temperature;BME280_humidity;BME280_pressure;Samples;Min_cycle;Max_cycle;Signal;HPM_P1;HPM_P2
2021/12/12 00:01:12;;;;;;;6.27;4.30;;;-1.90;96.30;;;;;;4870461;29;20470;-81
2021/12/12 00:03:46;;;;;;;4.57;3.70;;;-1.90;96.30;;;;;;4870298;29;20430;-81
2021/12/12 00:06:17;;;;;;;6.50;3.37;;;-1.80;96.30;;;;;;4869896;29;20430;-81
2021/12/12 00:08:47;;;;;;;8.03;5.23;;;-1.80;96.30;;;;;;4870963;29;20420;-80
2021/12/12 00:11:18;;;;;;;6.70;4.80;;;-1.80;96.30;;;;;;4871444;29;20430;-81
2021/12/12 00:14:00;;;;;;;6.03;4.63;;;-1.90;96.30;;;;;;4872139;29;20970;-81
2021/12/12 00:16:27;;;;;;;7.83;5.10;;;-1.90;96.30;;;;;;4872381;29;20765;-81
2021/12/12 00:18:52;;;;;;;7.00;4.70;;;-1.90;96.30;;;;;;4874024;29;20790;-81
2021/12/12 00:21:21;;;;;;;6.83;4.90;;;-2.00;96.30;;;;;;4872757;29;20501;-81
2021/12/12 00:23:47;;;;;;;5.80;4.30;;;-2.00;96.30;;;;;;4872673;29;20186;-81
2021/12/12 00:26:12;;;;;;;8.30;5.53;;;-2.00;96.30;;;;;;4874533;29;20456;-81
2021/12/12 00:28:39;;;;;;;11.07;5.70;;;-1.90;96.30;;;;;;4883679;29;20433;-81
2021/12/12 00:31:10;;;;;;;8.80;6.10;;;-1.90;96.30;;;;;;4911143;29;20189;-81
2021/12/12 00:33:38;;;;;;;7.57;5.30;;;-2.00;96.30;;;;;;4910354;29;20421;-81
2021/12/12 00:36:05;;;;;;;9.90;6.90;;;-2.00;96.30;;;;;;4911384;29;20428;-81
2021/12/12 00:38:33;;;;;;;10.07;6.50;;;-2.10;96.30;;;;;;4910611;29;20413;-81
2021/12/12 00:41:05;;;;;;;7.40;4.83;;;-2.00;96.30;;;;;;4911701;29;20441;-81
2021/12/12 00:43:36;;;;;;;9.00;6.10;;;-1.90;96.30;;;;;;4910748;29;20425;-81
2021/12/12 00:46:05;;;;;;;9.47;6.50;;;-1.90;96.30;;;;;;4911426;29;20433;-81
2021/12/12 00:48:33;;;;;;;8.20;5.70;;;-2.00;96.30;;;;;;4909595;29;20473;-80
2021/12/12 00:51:00;;;;;;;9.83;6.50;;;-2.00;96.30;;;;;;4912202;29;20440;-81
2021/12/12 00:53:26;;;;;;;14.80;5.97;;;-2.00;96.30;;;;;;4915627;29;20497;-81
2021/12/12 00:55:53;;;;;;;12.37;7.00;;;-1.90;96.30;;;;;;4914348;29;20437;-81
2021/12/12 00:58:21;;;;;;;10.50;6.67;;;-1.90;96.30;;;;;;4916010;29;20200;-81
2021/12/12 05:00:07;;;;;;;9.43;5.97;;;-0.90;96.30;;;;;;6010514;23;20371;31
2021/12/12 05:03:00;;;;;;;10.40;6.47;;;-0.90;96.30;;;;;;4855927;29;21022;-80
2021/12/12 05:05:34;;;;;;;13.90;7.27;;;-0.90;96.30;;;;;;4859404;29;20526;-80
2021/12/12 05:08:07;;;;;;;11.20;7.03;;;-0.90;96.30;;;;;;4858786;29;20490;-80
2021/12/12 05:10:46;;;;;;;10.57;6.20;;;-1.00;96.30;;;;;;4859293;29;20847;-80
2021/12/12 05:13:17;;;;;;;11.27;6.77;;;-0.90;96.30;;;;;;4860670;29;20994;-80
2021/12/12 05:15:47;;;;;;;9.70;7.07;;;-0.90;96.30;;;;;;4860718;29;20419;-80
2021/12/12 05:18:35;;;;;;;11.40;5.83;;;-1.00;96.30;;;;;;4860143;29;20483;-80
2021/12/12 05:31:22;;;;;;;9.10;5.63;;;-1.30;96.30;;;;;;5219212;23;20883;-81
2021/12/12 05:33:54;;;;;;;6.20;5.20;;;-1.30;96.30;;;;;;4882433;29;20422;-81
2021/12/12 05:36:21;;;;;;;7.00;5.50;;;-1.30;96.30;;;;;;4883680;29;20180;-81
2021/12/12 05:38:47;;;;;;;6.90;4.90;;;-1.40;96.30;;;;;;4887511;29;20406;-81
2021/12/12 05:41:18;;;;;;;7.90;5.53;;;-1.40;96.30;;;;;;4886016;29;20504;-81
2021/12/12 05:43:45;;;;;;;9.73;5.97;;;-1.30;96.30;;;;;;4882087;29;20406;-81
2021/12/12 05:46:15;;;;;;;8.40;5.67;;;-1.50;96.30;;;;;;4881407;29;20421;-80
2021/12/12 05:48:43;;;;;;;9.83;6.27;;;-1.70;96.30;;;;;;4881893;29;20497;-81
2021/12/12 05:51:09;;;;;;;10.40;6.17;;;-1.70;96.30;;;;;;4883966;29;20808;-81
2021/12/12 05:53:35;;;;;;;8.00;6.97;;;-1.80;96.30;;;;;;4881829;29;20450;-80
2021/12/12 05:56:01;;;;;;;12.23;6.47;;;-1.90;96.30;;;;;;4883016;29;20770;-81
2021/12/12 05:58:27;;;;;;;8.97;6.63;;;-1.90;96.30;;;;;;4881803;29;20213;-81
2021/12/12 06:01:04;;;;;;;5.30;4.50;;;-1.90;96.30;;;;;;4881728;29;20642;-81
2021/12/12 06:03:33;;;;;;;6.97;5.40;;;-1.90;96.30;;;;;;4880464;29;20178;-81
2021/12/12 06:06:04;;;;;;;9.60;6.57;;;-1.80;96.30;;;;;;4880578;29;20418;-81
2021/12/12 06:08:30;;;;;;;9.10;5.77;;;-1.80;96.30;;;;;;4882291;29;20509;-81
2021/12/12 06:10:56;;;;;;;9.17;5.60;;;-1.90;96.30;;;;;;4880968;29;20437;-81
2021/12/12 06:13:24;;;;;;;10.67;5.97;;;-1.70;96.30;;;;;;4882437;29;20449;-81
2021/12/12 06:15:53;;;;;;;6.10;4.80;;;-1.60;96.30;;;;;;4881440;29;20205;-81
2021/12/12 06:18:21;;;;;;;6.93;5.10;;;-1.50;96.30;;;;;;4882237;29;20426;-81
2021/12/12 06:20:47;;;;;;;3.80;3.27;;;-1.50;96.30;;;;;;4881877;29;20845;-81
2021/12/12 06:23:15;;;;;;;6.80;5.50;;;-1.60;96.30;;;;;;4881939;29;20419;-80
2021/12/12 06:25:41;;;;;;;7.50;5.30;;;-1.40;96.30;;;;;;4882174;29;20957;-81
2021/12/12 06:28:13;;;;;;;7.13;5.20;;;-1.40;96.30;;;;;;4881602;29;20469;-80
2021/12/12 06:30:39;;;;;;;9.50;6.27;;;-1.30;96.30;;;;;;4881010;29;20454;-81
2021/12/12 06:33:05;;;;;;;7.80;5.73;;;-1.40;96.30;;;;;;4881588;29;20421;-81
2021/12/12 06:35:32;;;;;;;9.53;6.30;;;-1.40;96.30;;;;;;4882447;29;20185;-81
2021/12/12 06:38:05;;;;;;;6.53;5.50;;;-1.40;96.30;;;;;;4881078;29;20474;-81
2021/12/12 06:40:32;;;;;;;7.07;5.47;;;-1.30;96.30;;;;;;4880875;29;20446;-81
2021/12/12 06:43:05;;;;;;;7.90;6.20;;;-1.20;96.30;;;;;;4880836;29;20434;-81
2021/12/12 06:45:32;;;;;;;6.27;5.07;;;-1.20;96.30;;;;;;4880636;29;20449;-81
2021/12/12 06:47:59;;;;;;;5.97;3.77;;;-1.20;96.30;;;;;;4880197;29;20466;-81
2021/12/12 06:50:26;;;;;;;7.10;5.30;;;-1.10;96.30;;;;;;4882111;29;20477;-81
2021/12/12 06:52:54;;;;;;;6.50;5.60;;;-1.10;96.30;;;;;;4881032;29;20429;-80
2021/12/12 06:55:21;;;;;;;7.63;5.43;;;-1.20;96.30;;;;;;4885528;29;20436;-80
2021/12/12 06:57:47;;;;;;;6.17;4.83;;;-1.20;96.30;;;;;;4881245;29;20430;-81
2021/12/12 07:00:17;;;;;;;6.67;4.80;;;-1.20;96.30;;;;;;4881583;29;20931;-81
2021/12/12 07:02:44;;;;;;;7.27;5.37;;;-1.20;96.30;;;;;;4881210;29;20435;-81
2021/12/12 07:05:14;;;;;;;8.87;4.80;;;-1.30;96.30;;;;;;4881566;29;20502;-81
2021/12/12 07:07:40;;;;;;;8.87;4.60;;;-1.30;96.30;;;;;;4880561;29;20454;-81
2021/12/12 07:10:08;;;;;;;7.30;6.00;;;-1.40;96.30;;;;;;4880995;29;20509;-81
2021/12/12 07:12:34;;;;;;;10.53;6.40;;;-1.40;96.30;;;;;;4882069;29;20189;-82
2021/12/12 07:15:02;;;;;;;11.47;6.63;;;-1.40;96.30;;;;;;4884029;29;20426;-82
2021/12/12 07:17:28;;;;;;;9.80;4.57;;;-1.40;96.30;;;;;;4881077;29;20460;-80
2021/12/12 07:19:54;;;;;;;7.60;5.83;;;-1.30;96.30;;;;;;4876884;29;20434;-81
2021/12/12 07:22:20;;;;;;;9.00;5.17;;;-1.20;96.30;;;;;;4861631;29;20230;-77
2021/12/12 07:24:46;;;;;;;7.63;4.50;;;-1.20;96.30;;;;;;4884254;29;20933;-79
2021/12/12 07:27:16;;;;;;;7.47;6.00;;;-1.20;96.30;;;;;;4885083;29;20461;-78
2021/12/12 07:29:42;;;;;;;5.97;4.50;;;-1.20;96.30;;;;;;4886626;29;20429;-79
2021/12/12 07:32:08;;;;;;;6.10;4.70;;;-1.10;96.30;;;;;;4887272;29;20438;-80
2021/12/12 07:34:35;;;;;;;10.00;3.87;;;-1.20;96.30;;;;;;4889558;29;20418;-80
2021/12/12 07:37:04;;;;;;;7.47;4.67;;;-1.00;96.30;;;;;;4889575;29;20181;-81
2021/12/12 07:39:31;;;;;;;7.97;5.50;;;-1.00;96.30;;;;;;4890067;29;20448;-80
2021/12/12 07:41:59;;;;;;;9.30;5.40;;;-1.10;96.30;;;;;;4888815;29;20523;-79
2021/12/12 07:44:28;;;;;;;7.37;5.60;;;-1.00;96.30;;;;;;4884763;29;20417;-80
2021/12/12 07:46:57;;;;;;;7.17;4.87;;;-0.90;96.30;;;;;;4884392;29;20464;-80
2021/12/12 07:49:27;;;;;;;8.57;5.43;;;-0.90;96.30;;;;;;4885093;29;20853;-81
2021/12/12 07:51:53;;;;;;;12.03;5.20;;;-0.90;96.30;;;;;;4889077;29;20802;-81
2021/12/12 07:54:19;;;;;;;8.10;5.07;;;-0.80;96.30;;;;;;4883405;29;20507;-80
2021/12/12 07:56:45;;;;;;;6.47;4.77;;;-0.80;96.30;;;;;;4885600;29;20819;-79
2021/12/12 07:59:13;;;;;;;6.53;5.20;;;-0.80;96.30;;;;;;4887443;29;20185;-79
2021/12/12 08:01:42;;;;;;;8.70;5.50;;;-0.70;96.30;;;;;;4884252;29;20434;-79
2021/12/12 08:04:09;;;;;;;7.23;4.57;;;-0.70;96.30;;;;;;4887932;29;20405;-80
2021/12/12 08:06:36;;;;;;;7.20;5.30;;;-0.60;96.30;;;;;;4886124;29;20430;-80
2021/12/12 08:09:02;;;;;;;5.63;4.23;;;-0.50;96.30;;;;;;4887309;29;20759;-79
2021/12/12 08:11:32;;;;;;;4.53;3.23;;;-0.40;96.30;;;;;;4886507;29;20446;-79
2021/12/12 08:13:59;;;;;;;9.33;6.67;;;-0.30;96.30;;;;;;4876330;29;20426;-78
2021/12/12 08:16:25;;;;;;;6.30;5.43;;;-0.30;96.30;;;;;;4885622;29;20428;-79
2021/12/12 08:18:52;;;;;;;5.87;3.97;;;-0.10;96.30;;;;;;4884923;29;20461;-79
2021/12/12 08:21:20;;;;;;;5.23;4.10;;;0.00;96.30;;;;;;4885294;29;20446;-78
2021/12/12 08:23:47;;;;;;;6.17;4.17;;;0.10;96.30;;;;;;4881857;29;20516;-78
2021/12/12 08:26:13;;;;;;;6.23;4.10;;;0.20;96.30;;;;;;4882024;29;20436;-78
2021/12/12 08:28:39;;;;;;;9.30;4.83;;;0.30;96.30;;;;;;4889437;29;20462;-78
2021/12/12 08:31:06;;;;;;;5.67;4.50;;;0.50;96.30;;;;;;4879789;29;20461;-79
2021/12/12 08:33:32;;;;;;;6.30;3.87;;;0.50;96.30;;;;;;4881677;29;20430;-78
2021/12/12 08:35:58;;;;;;;5.47;4.10;;;0.50;96.30;;;;;;4881572;29;20425;-78
2021/12/12 08:38:25;;;;;;;5.20;3.90;;;0.50;96.30;;;;;;4891406;29;20964;-77
2021/12/12 08:40:54;;;;;;;6.17;4.57;;;0.50;96.30;;;;;;4884046;29;20448;-78
2021/12/12 08:43:22;;;;;;;11.43;8.27;;;0.60;96.30;;;;;;4886848;29;20956;-78
2021/12/12 08:45:53;;;;;;;19.70;17.40;;;0.50;96.30;;;;;;4881276;29;20428;-79
2021/12/12 08:48:22;;;;;;;27.10;18.83;;;0.40;96.30;;;;;;4882208;29;20458;-79
2021/12/12 08:50:53;;;;;;;8.37;7.00;;;0.40;96.30;;;;;;4888871;29;20456;-76
2021/12/12 08:53:19;;;;;;;6.37;4.57;;;0.40;96.30;;;;;;4881076;29;20473;-77
2021/12/12 08:55:50;;;;;;;4.90;3.50;;;0.40;96.30;;;;;;4888424;29;20771;-77
2021/12/12 08:58:19;;;;;;;5.90;4.30;;;0.40;96.30;;;;;;4884048;29;20416;-77
2021/12/12 09:00:51;;;;;;;7.97;6.03;;;0.40;96.30;;;;;;4881964;29;20477;-77
2021/12/12 09:03:25;;;;;;;9.73;7.10;;;0.40;96.30;;;;;;4884098;29;20422;-78
2021/12/12 09:05:51;;;;;;;5.87;4.67;;;0.50;96.30;;;;;;4881618;29;21228;-77
2021/12/12 09:08:26;;;;;;;10.37;6.70;;;0.50;96.30;;;;;;4885587;29;21011;-77
2021/12/12 09:11:04;;;;;;;9.40;5.73;;;0.50;96.30;;;;;;4881062;29;21064;-76
2021/12/12 09:13:39;;;;;;;6.33;4.70;;;0.50;96.30;;;;;;4887587;29;20418;-77
2021/12/12 09:16:15;;;;;;;5.00;3.87;;;0.60;96.30;;;;;;4885356;29;20443;-77
2021/12/12 09:18:47;;;;;;;5.83;4.60;;;0.50;96.30;;;;;;4887504;29;20436;-77
2021/12/12 09:21:25;;;;;;;7.40;5.30;;;0.60;96.30;;;;;;4887141;29;20473;-77
2021/12/12 09:24:10;;;;;;;6.23;4.63;;;0.60;96.30;;;;;;4883249;29;20506;-77
2021/12/12 09:26:43;;;;;;;6.20;5.07;;;0.70;96.30;;;;;;4898202;29;20502;-78
2021/12/12 09:29:26;;;;;;;7.97;4.80;;;0.80;96.30;;;;;;4887223;29;20406;-77
2021/12/12 09:31:59;;;;;;;8.43;6.20;;;0.90;96.30;;;;;;4886214;29;20457;-78
2021/12/12 09:34:35;;;;;;;11.77;9.53;;;1.00;96.30;;;;;;4884786;29;20966;-78
2021/12/12 09:37:19;;;;;;;8.83;6.00;;;1.10;96.30;;;;;;4895878;29;20428;-79
2021/12/12 09:39:56;;;;;;;7.27;5.30;;;1.10;96.30;;;;;;4892012;29;20443;-78
2021/12/12 09:42:37;;;;;;;9.93;8.00;;;1.10;96.30;;;;;;4882712;29;20452;-79
2021/12/12 09:45:11;;;;;;;13.67;10.20;;;1.30;96.30;;;;;;4877594;29;20421;-78
2021/12/12 09:51:14;;;;;;;10.30;7.33;;;1.30;96.30;;;;;;4879596;29;20539;-78
2021/12/12 09:51:34;;;;;;;7.60;5.63;;;1.40;96.30;;;;;;4885127;29;20949;-80
2021/12/12 09:54:18;;;;;;;13.63;9.43;;;1.60;96.30;;;;;;4885217;29;20434;-79
2021/12/12 09:56:54;;;;;;;16.60;12.33;;;1.70;96.30;;;;;;4888791;29;20411;-79
2021/12/12 09:59:45;;;;;;;7.40;6.33;;;1.80;96.30;;;;;;4876483;29;20417;-79
2021/12/12 10:02:22;;;;;;;8.10;6.20;;;2.00;96.30;;;;;;4883570;29;20494;-78
2021/12/12 10:05:24;;;;;;;7.37;5.07;;;2.20;96.30;;;;;;4887815;29;20932;-78
2021/12/12 10:08:27;;;;;;;12.00;8.20;;;2.30;96.30;;;;;;4880292;29;21037;-78
2021/12/12 10:11:17;;;;;;;9.60;7.00;;;2.30;96.30;;;;;;4885599;29;20460;-80
2021/12/12 10:13:46;;;;;;;8.03;5.60;;;2.40;96.30;;;;;;4891752;29;20469;-78
2021/12/12 10:16:47;;;;;;;16.40;10.57;;;2.30;96.30;;;;;;4890757;29;20791;-77
2021/12/12 10:19:40;;;;;;;15.07;8.80;;;2.40;96.30;;;;;;4883940;29;20445;-76
2021/12/12 10:22:20;;;;;;;8.90;7.20;;;2.50;96.30;;;;;;4885271;29;20454;-76
2021/12/12 10:24:52;;;;;;;5.83;3.73;;;2.70;96.30;;;;;;4884585;29;20433;-76
2021/12/12 10:27:22;;;;;;;10.23;7.80;;;2.80;96.30;;;;;;4886460;29;21160;-76
2021/12/12 10:30:04;;;;;;;6.87;4.97;;;2.80;96.30;;;;;;4880210;29;20426;-76
2021/12/12 10:32:34;;;;;;;7.20;5.07;;;2.80;96.30;;;;;;4873827;29;20450;-76
2021/12/12 10:35:24;;;;;;;7.03;4.60;;;3.00;96.30;;;;;;4876586;29;20434;-75
2021/12/12 10:37:59;;;;;;;5.17;3.80;;;2.90;96.30;;;;;;4878501;29;20430;-74
2021/12/12 10:40:30;;;;;;;9.27;5.50;;;3.00;96.30;;;;;;4880161;29;20422;-74
2021/12/12 10:43:02;;;;;;;7.47;5.20;;;3.40;96.30;;;;;;4865361;29;20426;-73
2021/12/12 10:45:32;;;;;;;4.30;3.50;;;3.60;96.30;;;;;;4882896;29;20440;-75
2021/12/12 10:48:01;;;;;;;8.53;5.30;;;3.70;96.30;;;;;;4887585;29;20854;-75
2021/12/12 10:50:48;;;;;;;6.73;4.63;;;3.50;96.30;;;;;;4880175;29;20422;-75
2021/12/12 10:53:27;;;;;;;10.87;7.30;;;3.30;96.30;;;;;;4879555;29;20418;-73
2021/12/12 10:56:13;;;;;;;9.80;6.70;;;3.30;96.30;;;;;;4880513;29;20418;-74
2021/12/12 10:58:49;;;;;;;9.17;6.00;;;3.50;96.30;;;;;;4879711;29;20430;-75
2021/12/12 11:01:22;;;;;;;5.40;4.30;;;3.60;96.30;;;;;;4885253;29;20484;-76
2021/12/12 11:04:09;;;;;;;6.47;4.57;;;3.70;96.30;;;;;;4881225;29;20911;-75
2021/12/12 11:06:41;;;;;;;4.73;3.33;;;3.70;96.30;;;;;;4883708;29;20422;-74
2021/12/12 11:09:12;;;;;;;4.50;2.87;;;3.70;96.30;;;;;;4879403;29;20430;-75
2021/12/12 11:12:07;;;;;;;6.67;4.63;;;3.80;96.30;;;;;;4883245;29;20438;-75
2021/12/12 11:14:41;;;;;;;4.67;4.17;;;3.70;96.30;;;;;;4880244;29;20438;-76
2021/12/12 11:17:19;;;;;;;4.60;3.57;;;3.80;96.30;;;;;;4882570;29;20429;-73
2021/12/12 11:20:04;;;;;;;6.03;4.00;;;3.80;96.30;;;;;;4884105;29;20434;-75
2021/12/12 11:22:40;;;;;;;8.43;5.47;;;3.90;96.30;;;;;;4878562;29;20445;-75
2021/12/12 11:25:08;;;;;;;7.43;3.90;;;3.90;96.30;;;;;;4883016;29;20517;-76
2021/12/12 11:27:48;;;;;;;7.10;3.63;;;4.00;96.30;;;;;;4882532;29;21178;-76
2021/12/12 11:30:38;;;;;;;5.43;3.50;;;4.10;96.30;;;;;;4885389;29;20444;-76
2021/12/12 11:33:09;;;;;;;6.53;4.43;;;3.90;96.30;;;;;;4882509;29;20417;-76
2021/12/12 11:35:36;;;;;;;4.80;3.93;;;3.80;96.30;;;;;;4884123;29;20418;-76
2021/12/12 11:38:30;;;;;;;8.03;4.70;;;3.90;96.30;;;;;;4885300;29;20453;-76
2021/12/12 11:41:16;;;;;;;5.33;3.87;;;3.80;96.30;;;;;;4856252;29;20450;-74
2021/12/12 11:44:02;;;;;;;6.63;4.40;;;3.70;96.30;;;;;;4895957;29;21034;-76
2021/12/12 11:46:39;;;;;;;4.30;3.60;;;3.60;96.30;;;;;;4882664;29;20441;-75
2021/12/12 11:49:19;;;;;;;6.63;4.37;;;3.40;96.30;;;;;;4885937;29;20770;-75
2021/12/12 11:51:58;;;;;;;4.30;3.40;;;3.20;96.30;;;;;;4884194;29;20456;-76
2021/12/12 11:54:38;;;;;;;5.20;3.30;;;3.20;96.30;;;;;;4880634;29;20421;-75
2021/12/12 11:57:12;;;;;;;5.30;3.20;;;3.20;96.30;;;;;;4883571;29;20477;-75
2021/12/12 11:59:59;;;;;;;4.50;3.20;;;3.40;96.30;;;;;;4882363;29;20426;-76
2021/12/12 12:02:33;;;;;;;4.40;3.23;;;3.50;96.30;;;;;;4878881;29;20472;-74
2021/12/12 12:05:31;;;;;;;5.13;3.27;;;3.60;96.30;;;;;;4883543;29;20921;-74
2021/12/12 12:07:57;;;;;;;6.10;3.80;;;3.60;96.30;;;;;;4875420;29;20558;-74
2021/12/12 12:10:38;;;;;;;11.80;8.03;;;3.50;96.30;;;;;;4883098;29;20466;-74
2021/12/12 12:13:14;;;;;;;3.83;2.60;;;3.60;96.30;;;;;;4881703;29;20681;-74
2021/12/12 12:15:54;;;;;;;5.43;3.43;;;3.50;96.30;;;;;;4883471;29;20417;-74
2021/12/12 12:18:48;;;;;;;6.20;3.20;;;3.50;96.30;;;;;;4885567;29;20481;-74
2021/12/12 12:29:32;;;;;;;5.43;3.67;;;3.50;96.30;;;;;;4897546;29;20937;-74
2021/12/12 12:32:39;;;;;;;4.23;3.13;;;3.50;96.30;;;;;;4885704;29;20847;-74
2021/12/12 12:35:26;;;;;;;5.10;3.37;;;3.50;96.30;;;;;;4846550;29;20788;-74
2021/12/12 12:38:29;;;;;;;4.80;2.90;;;3.60;96.30;;;;;;4881779;29;20426;-75
2021/12/12 12:41:32;;;;;;;3.10;2.43;;;3.50;96.30;;;;;;4882593;29;20457;-74
2021/12/12 12:44:59;;;;;;;4.70;2.87;;;3.60;96.30;;;;;;4884335;29;20473;-75
2021/12/12 12:48:01;;;;;;;4.37;2.27;;;3.70;96.30;;;;;;4846902;29;20560;-74
2021/12/12 12:50:42;;;;;;;45.27;26.87;;;3.70;96.30;;;;;;4878055;29;20421;-74
2021/12/12 12:53:45;;;;;;;5.70;2.70;;;3.90;96.30;;;;;;4888624;29;20823;-75
2021/12/12 12:56:48;;;;;;;2.20;1.67;;;3.80;96.30;;;;;;4880884;29;20426;-73
2021/12/12 12:59:50;;;;;;;8.23;4.60;;;3.70;96.30;;;;;;4883828;29;20432;-74
2021/12/12 13:02:51;;;;;;;22.00;12.87;;;3.90;96.30;;;;;;4879281;29;20449;-74
2021/12/12 13:05:55;;;;;;;62.67;31.97;;;4.10;96.30;;;;;;4871759;29;20447;-74
2021/12/12 13:08:49;;;;;;;9.23;4.73;;;4.10;96.30;;;;;;4880783;29;20469;-74
2021/12/12 13:11:41;;;;;;;8.00;4.17;;;3.90;96.30;;;;;;4871675;29;20457;-74
2021/12/12 13:14:46;;;;;;;11.50;4.90;;;3.90;96.30;;;;;;4868769;29;20430;-73
2021/12/12 13:17:42;;;;;;;11.57;6.50;;;3.80;96.30;;;;;;4883696;29;20859;-74
2021/12/12 13:20:30;;;;;;;5.83;3.33;;;3.70;96.30;;;;;;4884847;29;20516;-74
2021/12/12 13:23:15;;;;;;;8.40;3.60;;;3.70;96.30;;;;;;4882722;29;20429;-74
2021/12/12 13:25:54;;;;;;;13.83;6.73;;;3.70;96.30;;;;;;4881084;29;20449;-74
2021/12/12 13:28:32;;;;;;;40.40;19.60;;;3.60;96.30;;;;;;4886858;29;20465;-77
2021/12/12 13:31:16;;;;;;;238.00;94.53;;;3.60;96.30;;;;;;4883603;29;20449;-75
2021/12/12 13:33:48;;;;;;;8.97;4.37;;;3.60;96.30;;;;;;4881817;29;20428;-75
2021/12/12 13:36:44;;;;;;;18.73;10.20;;;3.40;96.30;;;;;;4878785;29;20427;-76
2021/12/12 13:39:22;;;;;;;1.73;1.40;;;3.40;96.30;;;;;;4882240;29;20897;-75
2021/12/12 13:42:14;;;;;;;4.87;3.60;;;3.30;96.30;;;;;;4883029;29;20434;-75
2021/12/12 13:45:04;;;;;;;5.43;3.80;;;3.20;96.30;;;;;;4881224;29;20417;-75
2021/12/12 13:47:50;;;;;;;8.57;4.77;;;3.20;96.30;;;;;;4876810;29;20498;-74
2021/12/12 13:50:30;;;;;;;5.87;3.03;;;3.20;96.30;;;;;;4879215;29;20493;-75
2021/12/12 13:53:16;;;;;;;4.47;2.87;;;3.20;96.30;;;;;;4883435;29;20429;-75
2021/12/12 13:56:01;;;;;;;6.53;4.43;;;3.20;96.30;;;;;;4882171;29;21098;-75
2021/12/12 13:58:51;;;;;;;3.70;2.67;;;3.10;96.30;;;;;;4888030;29;20878;-74
2021/12/12 14:01:25;;;;;;;7.77;3.50;;;3.10;96.30;;;;;;4887139;29;20457;-76
2021/12/12 14:03:58;;;;;;;7.20;3.03;;;3.10;96.30;;;;;;4888736;29;20429;-76
2021/12/12 14:06:26;;;;;;;8.03;5.10;;;3.10;96.30;;;;;;4881449;29;20429;-75
2021/12/12 14:09:01;;;;;;;34.33;19.63;;;3.10;96.30;;;;;;4883470;29;20469;-76
2021/12/12 14:11:32;;;;;;;16.33;10.27;;;3.20;96.30;;;;;;4887355;29;20809;-75
2021/12/12 14:14:05;;;;;;;17.03;12.50;;;3.20;96.30;;;;;;4887143;29;20414;-75
2021/12/12 14:16:56;;;;;;;18.30;13.63;;;3.20;96.30;;;;;;4882069;29;20413;-76
2021/12/12 14:19:34;;;;;;;24.50;21.00;;;3.10;96.30;;;;;;4885252;29;20418;-75
2021/12/12 14:22:01;;;;;;;5.80;4.90;;;3.10;96.30;;;;;;4883933;29;20515;-76
2021/12/12 14:24:30;;;;;;;12.17;8.93;;;3.00;96.30;;;;;;4887540;29;20940;-75
2021/12/12 14:27:01;;;;;;;9.97;5.60;;;3.00;96.30;;;;;;4883865;29;20434;-75
2021/12/12 14:29:31;;;;;;;4.50;2.40;;;3.00;96.30;;;;;;4885286;29;20424;-74
2021/12/12 14:32:02;;;;;;;6.90;3.07;;;2.90;96.30;;;;;;4881255;29;20438;-74
2021/12/12 14:34:45;;;;;;;5.93;2.23;;;2.90;96.30;;;;;;4885102;29;20926;-75
2021/12/12 14:37:18;;;;;;;2.50;1.93;;;2.80;96.30;;;;;;4880587;29;20866;-75
2021/12/12 14:39:43;;;;;;;4.73;1.40;;;2.80;96.30;;;;;;4879379;29;20421;-75
2021/12/12 14:42:22;;;;;;;6.73;2.47;;;2.80;96.30;;;;;;4887172;29;20450;-75
2021/12/12 14:44:54;;;;;;;12.47;4.30;;;2.80;96.30;;;;;;4882591;29;20244;-76
2021/12/12 14:47:29;;;;;;;5.77;2.63;;;2.70;96.30;;;;;;4882703;29;20470;-75
2021/12/12 14:50:18;;;;;;;6.47;2.33;;;2.70;96.30;;;;;;4884934;29;20430;-76
2021/12/12 14:52:46;;;;;;;9.00;4.57;;;2.60;96.30;;;;;;4884546;29;20769;-76
2021/12/12 14:55:28;;;;;;;8.70;3.13;;;2.50;96.30;;;;;;4885070;29;20952;-74
2021/12/12 14:58:05;;;;;;;5.83;4.00;;;2.50;96.30;;;;;;4886324;29;20410;-77
2021/12/12 15:00:39;;;;;;;6.00;2.07;;;2.50;96.30;;;;;;4883916;29;20436;-77
2021/12/12 15:03:09;;;;;;;9.57;2.67;;;2.60;96.30;;;;;;4883747;29;20425;-77
2021/12/12 15:05:46;;;;;;;2.60;1.60;;;2.60;96.30;;;;;;4882835;29;20438;-77
2021/12/12 15:08:19;;;;;;;10.67;3.33;;;2.60;96.30;;;;;;4883363;29;20460;-76
2021/12/12 15:11:01;;;;;;;5.40;2.00;;;2.60;96.30;;;;;;4882421;29;20486;-78
2021/12/12 15:13:28;;;;;;;5.93;2.03;;;2.60;96.30;;;;;;4884607;29;20854;-77
2021/12/12 15:16:11;;;;;;;4.03;2.23;;;2.50;96.30;;;;;;4881866;29;20486;-76
2021/12/12 15:18:41;;;;;;;4.53;2.07;;;2.50;96.30;;;;;;4884478;29;20425;-79
2021/12/12 15:21:27;;;;;;;8.60;2.67;;;2.50;96.30;;;;;;4883018;29;20544;-76
2021/12/12 15:23:56;;;;;;;4.90;2.00;;;2.40;96.30;;;;;;4886603;29;20946;-76
2021/12/12 15:26:28;;;;;;;11.77;2.87;;;2.50;96.30;;;;;;4882396;29;20454;-76
2021/12/12 15:28:56;;;;;;;12.93;2.43;;;2.40;96.30;;;;;;4883712;29;20466;-76
2021/12/12 15:31:35;;;;;;;8.23;3.07;;;2.40;96.30;;;;;;4884389;29;20434;-78
2021/12/12 15:34:06;;;;;;;8.67;2.90;;;2.40;96.30;;;;;;4883739;29;20480;-78
2021/12/12 15:36:38;;;;;;;7.83;4.40;;;2.30;96.30;;;;;;4891364;29;20425;-78
2021/12/12 15:39:07;;;;;;;6.10;2.93;;;2.30;96.30;;;;;;4878148;29;20433;-78
2021/12/12 15:41:38;;;;;;;3.67;2.17;;;2.30;96.30;;;;;;4886240;29;20494;-78
2021/12/12 15:44:09;;;;;;;3.63;2.33;;;2.30;96.30;;;;;;4883110;29;20425;-78
2021/12/12 15:46:41;;;;;;;7.90;2.93;;;2.30;96.30;;;;;;4882349;29;20938;-79
2021/12/12 15:49:26;;;;;;;6.70;1.90;;;2.20;96.30;;;;;;4885058;29;20465;-79
2021/12/12 15:52:18;;;;;;;2.97;1.60;;;2.20;96.30;;;;;;4882517;29;20457;-79
2021/12/12 15:54:45;;;;;;;5.23;2.10;;;2.20;96.30;;;;;;4868261;29;20521;-79
2021/12/12 15:57:17;;;;;;;12.47;2.33;;;2.30;96.30;;;;;;4882738;29;20426;-79
2021/12/12 15:59:53;;;;;;;6.33;2.43;;;2.20;96.30;;;;;;4879313;29;20441;-78
2021/12/12 16:02:25;;;;;;;5.27;3.07;;;2.30;96.30;;;;;;4883152;29;20448;-79
2021/12/12 16:05:01;;;;;;;8.63;1.73;;;2.20;96.30;;;;;;4883994;29;20421;-78
2021/12/12 16:07:27;;;;;;;4.50;2.53;;;2.20;96.30;;;;;;4880438;29;20847;-79
2021/12/12 16:10:17;;;;;;;5.90;2.50;;;2.30;96.30;;;;;;4882504;29;20489;-79
2021/12/12 16:12:46;;;;;;;17.33;10.67;;;2.30;96.30;;;;;;4879217;29;20425;-79
2021/12/12 16:15:15;;;;;;;4.63;2.47;;;2.30;96.30;;;;;;4876926;29;20414;-79
2021/12/12 16:17:50;;;;;;;11.40;4.90;;;2.30;96.30;;;;;;4880972;29;20421;-79
2021/12/12 16:20:26;;;;;;;6.57;1.37;;;2.40;96.30;;;;;;4879349;29;20453;-79
2021/12/12 16:22:55;;;;;;;4.80;1.57;;;2.40;96.30;;;;;;4868073;29;20419;-79
2021/12/12 16:25:23;;;;;;;6.23;2.30;;;2.40;96.30;;;;;;4864034;29;20434;-78
2021/12/12 16:27:53;;;;;;;5.20;2.40;;;2.50;96.30;;;;;;4872031;29;20526;-79
2021/12/12 16:30:34;;;;;;;5.30;1.70;;;2.50;96.30;;;;;;4873125;29;20423;-79
2021/12/12 16:33:06;;;;;;;4.10;2.23;;;2.50;96.30;;;;;;4869263;29;20414;-79
2021/12/12 16:35:35;;;;;;;3.03;1.20;;;2.50;96.30;;;;;;4878255;29;20875;-78
2021/12/12 16:38:13;;;;;;;5.03;1.80;;;2.50;96.30;;;;;;4868732;29;20436;-78
2021/12/12 16:40:47;;;;;;;2.80;1.20;;;2.50;96.30;;;;;;4872120;29;20452;-78
2021/12/12 16:43:34;;;;;;;4.90;1.33;;;2.40;96.30;;;;;;4882934;29;20415;-78
2021/12/12 16:46:09;;;;;;;3.13;1.40;;;2.40;96.30;;;;;;4884378;29;20421;-78
2021/12/12 16:48:53;;;;;;;2.17;1.30;;;2.40;96.30;;;;;;4867537;29;20462;-78
2021/12/12 16:51:44;;;;;;;3.40;1.67;;;2.40;96.30;;;;;;4892922;29;20952;-77
2021/12/12 16:54:31;;;;;;;4.10;1.50;;;2.40;96.30;;;;;;4873761;29;20493;-78
2021/12/12 16:57:01;;;;;;;3.63;1.30;;;2.40;96.30;;;;;;4881431;29;20455;-78
2021/12/12 16:59:31;;;;;;;4.40;1.60;;;2.50;96.30;;;;;;4882614;29;20418;-77
2021/12/12 17:01:58;;;;;;;4.87;2.00;;;2.40;96.30;;;;;;4872994;29;20477;-77
2021/12/12 17:04:27;;;;;;;1.80;1.40;;;2.40;96.30;;;;;;4883317;29;20429;-77
2021/12/12 17:07:05;;;;;;;3.23;1.87;;;2.40;96.30;;;;;;4883396;29;20517;-77
2021/12/12 17:09:31;;;;;;;4.30;1.17;;;2.40;96.30;;;;;;4865551;29;20879;-77
2021/12/12 17:12:19;;;;;;;1.80;1.40;;;2.40;96.30;;;;;;4879752;29;20445;-76
2021/12/12 17:14:49;;;;;;;3.30;1.70;;;2.50;96.30;;;;;;4888139;29;20204;-77
2021/12/12 17:17:24;;;;;;;2.93;1.60;;;2.50;96.30;;;;;;4868790;29;20431;-77
2021/12/12 17:19:52;;;;;;;2.83;1.43;;;2.50;96.30;;;;;;4875265;29;21149;-77
2021/12/12 17:22:21;;;;;;;2.63;0.97;;;2.50;96.30;;;;;;4881516;29;20858;-77
2021/12/12 17:24:52;;;;;;;1.60;1.30;;;2.50;96.30;;;;;;4877560;29;20458;-76
2021/12/12 17:27:21;;;;;;;4.80;1.77;;;2.50;96.30;;;;;;4870795;29;20552;-77
2021/12/12 17:29:51;;;;;;;4.93;2.73;;;2.50;96.30;;;;;;4876614;29;20426;-77
2021/12/12 17:33:15;;;;;;;1.60;1.30;;;2.40;96.30;;;;;;4862391;29;20483;-76
2021/12/12 17:35:58;;;;;;;5.10;1.80;;;2.40;96.30;;;;;;4841196;29;20528;-77
2021/12/12 17:38:29;;;;;;;4.50;1.40;;;2.40;96.30;;;;;;4872374;29;20907;-78
2021/12/12 17:40:59;;;;;;;2.80;1.63;;;2.40;96.30;;;;;;4866396;29;20451;-76
2021/12/12 17:43:55;;;;;;;2.20;1.80;;;2.40;96.30;;;;;;4876599;29;20422;-78
2021/12/12 17:46:57;;;;;;;4.87;1.43;;;2.50;96.30;;;;;;4868824;29;20418;-76
2021/12/12 17:49:53;;;;;;;4.13;1.77;;;2.50;96.30;;;;;;4871463;29;20445;-78
2021/12/12 17:52:27;;;;;;;1.80;1.43;;;2.40;96.30;;;;;;4866221;29;20463;-76